createdAt,value
2023-05-05T00:04:05.592Z,57.24
2023-05-05T00:09:08.514Z,57.99
2023-05-05T00:14:11.488Z,58.96
2023-05-05T00:19:14.277Z,60.76
2023-05-05T00:24:17.096Z,61.04
2023-05-05T00:29:19.890Z,65.08
2023-05-05T00:34:22.901Z,64.30
2023-05-05T00:39:25.698Z,54.60
2023-05-05T00:44:37.968Z,55.51
2023-05-05T00:49:41.245Z,58.59
2023-05-05T00:54:44.134Z,61.45
2023-05-05T00:59:49.367Z,62.44
2023-05-05T01:04:52.818Z,56.48
2023-05-05T01:10:18.001Z,59.64
2023-05-05T01:15:31.786Z,62.76
2023-05-05T01:20:50.408Z,59.04
2023-05-05T01:26:20.091Z,61.83
2023-05-05T01:31:38.974Z,60.22
2023-05-05T01:36:46.157Z,58.20
2023-05-05T01:41:54.257Z,61.03
2023-05-05T01:47:01.350Z,64.24
2023-05-05T01:52:06.150Z,58.05
2023-05-05T01:57:11.335Z,61.31
2023-05-05T02:02:16.251Z,62.65
2023-05-05T02:07:21.547Z,59.23
2023-05-05T02:12:25.080Z,62.59
2023-05-05T02:17:31.264Z,60.22
2023-05-05T02:22:34.204Z,62.93
2023-05-05T02:27:40.974Z,59.86
2023-05-05T02:33:00.223Z,61.89
2023-05-05T02:38:05.732Z,61.64
2023-05-05T02:43:11.962Z,57.87
2023-05-05T02:48:15.134Z,62.02
2023-05-05T02:53:22.347Z,62.25
2023-05-05T02:58:34.870Z,56.97
2023-05-05T03:03:50.413Z,59.71
2023-05-05T03:09:03.210Z,65.84
2023-05-05T03:14:10.094Z,61.00
2023-05-05T03:19:14.516Z,56.55
2023-05-05T03:24:19.016Z,60.85
2023-05-05T03:29:21.982Z,63.04
2023-05-05T03:34:25.763Z,56.73
2023-05-05T03:39:28.535Z,59.16
2023-05-05T03:44:31.361Z,61.85
2023-05-05T03:49:34.135Z,62.33
2023-05-05T03:54:38.347Z,55.99
2023-05-05T03:59:41.406Z,59.67
2023-05-05T04:04:44.965Z,61.35
2023-05-05T04:09:47.726Z,56.99
2023-05-05T04:14:50.484Z,59.33
2023-05-05T04:19:53.255Z,62.55
2023-05-05T04:24:56.036Z,59.51
2023-05-05T04:29:58.881Z,60.32
2023-05-05T04:35:01.706Z,62.22
2023-05-05T04:40:04.914Z,57.58
2023-05-05T04:45:10.357Z,60.27
2023-05-05T04:50:13.939Z,64.50
2023-05-05T04:55:16.712Z,57.70
2023-05-05T05:00:19.526Z,61.28
2023-05-05T05:05:22.512Z,61.49
2023-05-05T05:10:25.740Z,57.37
2023-05-05T05:15:28.590Z,59.84
2023-05-05T05:20:31.762Z,61.72
2023-05-05T05:25:35.983Z,56.72
2023-05-05T05:30:38.951Z,59.05
2023-05-05T05:35:42.923Z,60.86
2023-05-05T05:40:45.711Z,60.15
2023-05-05T05:45:48.549Z,60.37
2023-05-05T05:50:51.469Z,60.47
2023-05-05T05:55:54.182Z,59.70
2023-05-05T06:00:59.162Z,58.52
2023-05-05T06:06:02.178Z,57.73
2023-05-05T06:11:05.038Z,58.15
2023-05-05T06:16:08.410Z,57.20
2023-05-05T06:21:11.450Z,55.72
2023-05-05T06:26:14.494Z,53.86
2023-05-05T06:31:17.573Z,52.03
2023-05-05T06:36:20.514Z,44.76
2023-05-05T06:41:23.269Z,42.13
2023-05-05T06:46:28.336Z,36.79
2023-05-05T06:51:31.846Z,34.83
2023-05-05T06:56:34.812Z,32.01
2023-05-05T07:01:37.517Z,31.44
2023-05-05T07:06:40.404Z,29.00
2023-05-05T07:11:52.006Z,28.39
2023-05-05T07:16:54.829Z,28.43
2023-05-05T07:22:03.588Z,31.52
2023-05-05T07:32:24.306Z,32.97
2023-05-05T07:37:36.504Z,31.19
2023-05-05T07:42:39.340Z,30.81
2023-05-05T07:47:42.281Z,30.22
2023-05-05T07:52:51.824Z,28.83
2023-05-05T07:57:59.098Z,29.74
2023-05-05T08:03:01.972Z,29.32
2023-05-05T08:08:07.564Z,28.48
2023-05-05T08:13:10.335Z,28.82
2023-05-05T08:18:14.938Z,29.26
2023-05-05T08:23:17.739Z,29.28
2023-05-05T08:28:20.531Z,29.65
2023-05-05T08:33:23.273Z,29.27
2023-05-05T08:38:27.960Z,29.01
2023-05-05T08:43:31.034Z,29.09
2023-05-05T08:48:35.745Z,29.05
2023-05-05T08:53:51.755Z,29.82
2023-05-05T08:58:56.455Z,29.68
2023-05-05T09:04:04.894Z,29.69
2023-05-05T09:09:08.544Z,30.09
2023-05-05T09:19:31.736Z,30.86
2023-05-05T09:24:34.610Z,32.66
2023-05-05T09:29:37.935Z,34.47
2023-05-05T09:34:41.283Z,35.52
2023-05-05T09:39:54.767Z,37.10
2023-05-05T09:44:59.782Z,38.22
2023-05-05T09:50:11.447Z,38.78
2023-05-05T09:55:19.023Z,39.45
2023-05-05T10:00:41.804Z,39.72
2023-05-05T10:05:55.481Z,40.74
2023-05-05T10:11:08.072Z,41.24
2023-05-05T10:16:14.748Z,41.33
2023-05-05T10:21:25.674Z,40.96
2023-05-05T10:26:34.892Z,40.83
2023-05-05T10:31:47.205Z,41.22
2023-05-05T10:36:51.753Z,41.50
2023-05-05T10:41:55.882Z,41.87
2023-05-05T10:47:00.496Z,41.35
2023-05-05T10:52:06.987Z,41.24
2023-05-05T10:57:12.129Z,40.03
2023-05-05T11:02:29.605Z,40.14
2023-05-05T11:07:50.124Z,40.40
2023-05-05T11:12:58.333Z,39.88
2023-05-05T11:18:05.775Z,38.94
2023-05-05T11:23:29.977Z,38.65
2023-05-05T11:28:32.883Z,38.89
2023-05-05T11:33:37.763Z,39.31
2023-05-05T11:38:55.969Z,39.36
2023-05-05T11:44:11.905Z,39.46
2023-05-05T11:49:29.066Z,38.60
2023-05-05T11:54:32.945Z,38.49
2023-05-05T11:59:49.650Z,38.31
2023-05-05T12:04:52.994Z,38.71
2023-05-05T12:09:56.169Z,38.87
2023-05-05T12:14:59.076Z,38.60
2023-05-05T12:20:01.933Z,38.39
2023-05-05T12:25:07.013Z,38.08
2023-05-05T12:30:12.657Z,36.84
2023-05-05T12:35:16.185Z,36.58
2023-05-05T12:40:48.551Z,36.89
2023-05-05T12:46:12.224Z,37.11
2023-05-05T12:51:16.892Z,36.64
2023-05-05T12:56:38.170Z,36.58
2023-05-05T13:01:58.014Z,36.47
2023-05-05T13:07:14.910Z,36.23
2023-05-05T13:12:18.629Z,36.42
2023-05-05T13:17:21.408Z,36.41
2023-05-05T13:22:24.213Z,35.81
2023-05-05T13:27:27.319Z,36.43
2023-05-05T13:32:30.174Z,35.85
2023-05-05T13:37:33.010Z,35.50
2023-05-05T13:42:35.769Z,35.20
2023-05-05T13:47:39.087Z,35.10
2023-05-05T13:52:42.058Z,35.00
2023-05-05T13:57:44.956Z,34.95
2023-05-05T14:02:48.296Z,35.06
2023-05-05T14:07:51.363Z,35.05
2023-05-05T14:12:54.218Z,35.44
2023-05-05T14:17:57.199Z,35.16
2023-05-05T14:23:00.534Z,35.41
2023-05-05T14:28:04.172Z,34.94
2023-05-05T14:33:08.271Z,34.68
2023-05-05T14:38:11.283Z,34.83
2023-05-05T14:43:16.323Z,34.87
2023-05-05T14:48:22.256Z,35.12
2023-05-05T14:53:25.279Z,35.09
2023-05-05T14:58:28.130Z,34.27
2023-05-05T15:03:31.733Z,34.91
2023-05-05T15:08:34.952Z,34.94
2023-05-05T15:13:41.694Z,34.93
2023-05-05T15:18:44.450Z,34.47
2023-05-05T15:23:47.195Z,35.00
2023-05-05T15:28:50.467Z,34.54
2023-05-05T15:33:53.376Z,34.56
2023-05-05T15:38:56.817Z,34.81
2023-05-05T15:44:00.793Z,35.20
2023-05-05T15:49:03.720Z,34.65
2023-05-05T15:54:07.845Z,34.59
2023-05-05T15:59:10.613Z,34.41
2023-05-05T16:04:13.834Z,34.46
2023-05-05T16:09:17.709Z,34.45
2023-05-05T16:14:20.812Z,34.63
2023-05-05T16:19:30.883Z,34.97
2023-05-05T16:24:33.738Z,35.16
2023-05-05T16:29:36.798Z,35.29
2023-05-05T16:34:39.733Z,35.31
2023-05-05T16:39:42.608Z,35.41
2023-05-05T16:44:45.389Z,35.47
2023-05-05T16:49:48.223Z,35.59
2023-05-05T16:54:56.110Z,35.77
2023-05-05T16:59:59.404Z,36.03
2023-05-05T17:05:02.736Z,36.11
2023-05-05T17:10:06.902Z,36.18
2023-05-05T17:15:10.261Z,36.32
2023-05-05T17:20:13.399Z,36.64
2023-05-05T17:25:19.187Z,36.63
2023-05-05T17:30:22.189Z,36.63
2023-05-05T17:35:25.046Z,36.86
2023-05-05T17:40:28.958Z,36.99
2023-05-05T17:45:32.211Z,36.96
2023-05-05T17:50:35.023Z,37.29
2023-05-05T17:55:37.981Z,37.37
2023-05-05T18:00:40.873Z,37.37
2023-05-05T18:05:43.747Z,37.56
2023-05-05T18:10:46.709Z,37.72
2023-05-05T18:15:49.487Z,37.79
2023-05-05T18:20:52.335Z,37.90
2023-05-05T18:25:55.153Z,37.88
2023-05-05T18:30:57.923Z,38.24
2023-05-05T18:36:03.802Z,38.41
2023-05-05T18:41:06.745Z,38.43
2023-05-05T18:46:09.497Z,38.85
2023-05-05T18:51:12.297Z,38.77
2023-05-05T18:56:15.047Z,39.41
2023-05-05T19:01:18.019Z,39.99
2023-05-05T19:06:20.945Z,40.91
2023-05-05T19:11:24.087Z,41.72
2023-05-05T19:16:27.880Z,42.01
2023-05-05T19:21:32.035Z,42.34
2023-05-05T19:26:34.817Z,43.39
2023-05-05T19:31:37.551Z,43.94
2023-05-05T19:36:40.334Z,43.51
2023-05-05T19:41:43.099Z,44.70
2023-05-05T19:46:48.011Z,45.10
2023-05-05T19:51:52.167Z,44.80
2023-05-05T19:56:57.176Z,44.54
2023-05-05T20:02:01.907Z,45.22
2023-05-05T20:07:04.707Z,45.05
2023-05-05T20:12:07.753Z,45.79
2023-05-05T20:17:12.060Z,45.92
2023-05-05T20:22:14.809Z,46.85
2023-05-05T20:27:17.597Z,46.38
2023-05-05T20:32:22.242Z,47.57
2023-05-05T20:37:27.174Z,46.97
2023-05-05T20:42:31.253Z,47.47
2023-05-05T20:47:35.754Z,48.00
2023-05-05T20:52:38.718Z,48.00
2023-05-05T20:57:41.495Z,48.14
2023-05-05T21:02:44.488Z,49.12
2023-05-05T21:07:47.537Z,50.02
2023-05-05T21:12:50.473Z,49.36
2023-05-05T21:17:55.190Z,49.25
2023-05-05T21:22:57.997Z,49.05
2023-05-05T21:28:00.767Z,50.18
2023-05-05T21:33:03.765Z,50.70
2023-05-05T21:38:06.720Z,51.53
2023-05-05T21:43:09.532Z,51.58
2023-05-05T21:48:12.339Z,52.03
2023-05-05T21:53:15.332Z,52.35
2023-05-05T21:58:18.073Z,52.03
2023-05-05T22:03:21.360Z,52.69
2023-05-05T22:08:24.503Z,53.32
2023-05-05T22:13:27.312Z,54.40
2023-05-05T22:18:30.128Z,54.37
2023-05-05T22:23:32.933Z,54.63
2023-05-05T22:28:36.222Z,56.66
2023-05-05T22:33:39.036Z,55.08
2023-05-05T22:38:42.369Z,53.18
2023-05-05T22:43:45.283Z,53.28
2023-05-05T22:48:49.134Z,53.86
2023-05-05T22:53:51.975Z,53.52
2023-05-05T22:58:54.802Z,54.38
2023-05-05T23:03:57.600Z,53.56
2023-05-05T23:09:02.743Z,55.61
2023-05-05T23:14:05.535Z,56.42
2023-05-05T23:19:08.312Z,55.02
2023-05-05T23:24:11.138Z,54.99
2023-05-05T23:29:13.931Z,53.71
2023-05-05T23:34:16.876Z,54.30
2023-05-05T23:39:19.698Z,55.31
2023-05-05T23:44:22.466Z,54.19
2023-05-05T23:49:26.469Z,53.83
2023-05-05T23:54:29.495Z,54.47
2023-05-05T23:59:32.291Z,54.64
